sensor_id;sensor_type;location;lat;lon;timestamp;pressure;altitude;pressure_sealevel;temperature;humidity
54455;BME280;40364;52.270;10.546;2022-12-07T00:01:19;100381.56;;;12.21;58.88
54455;BME280;40364;52.270;10.546;2022-12-07T00:03:47;100383.41;;;11.86;58.99
54455;BME280;40364;52.270;10.546;2022-12-07T00:06:16;100376.56;;;11.43;60.94
54455;BME280;40364;52.270;10.546;2022-12-07T00:08:45;100365.09;;;11.32;62.71
54455;BME280;40364;52.270;10.546;2022-12-07T00:11:15;100367.47;;;12.02;60.44
54455;BME280;40364;52.270;10.546;2022-12-07T00:13:42;100359.38;;;12.60;57.32
54455;BME280;40364;52.270;10.546;2022-12-07T00:16:11;100358.41;;;12.52;56.87
54455;BME280;40364;52.270;10.546;2022-12-07T00:18:38;100358.69;;;12.47;56.55
54455;BME280;40364;52.270;10.546;2022-12-07T00:21:09;100357.34;;;13.46;54.61
54455;BME280;40364;52.270;10.546;2022-12-07T00:23:36;100358.41;;;13.38;53.89
54455;BME280;40364;52.270;10.546;2022-12-07T00:26:06;100354.25;;;12.30;57.46
54455;BME280;40364;52.270;10.546;2022-12-07T00:28:33;100337.75;;;12.57;56.63
54455;BME280;40364;52.270;10.546;2022-12-07T00:31:05;100341.56;;;12.33;58.65
54455;BME280;40364;52.270;10.546;2022-12-07T00:33:33;100351.06;;;13.14;55.60
54455;BME280;40364;52.270;10.546;2022-12-07T00:36:00;100346.25;;;12.13;56.96
54455;BME280;40364;52.270;10.546;2022-12-07T00:38:29;100350.56;;;12.42;58.04
54455;BME280;40364;52.270;10.546;2022-12-07T00:40:56;100345.34;;;12.09;58.59
54455;BME280;40364;52.270;10.546;2022-12-07T00:43:25;100342.50;;;11.77;61.67
54455;BME280;40364;52.270;10.546;2022-12-07T00:45:52;100339.59;;;11.18;63.75
54455;BME280;40364;52.270;10.546;2022-12-07T00:48:19;100339.63;;;11.06;63.81
54455;BME280;40364;52.270;10.546;2022-12-07T00:50:45;100332.53;;;11.64;62.80
54455;BME280;40364;52.270;10.546;2022-12-07T00:53:13;100325.63;;;11.30;62.30
54455;BME280;40364;52.270;10.546;2022-12-07T00:55:39;100332.53;;;11.08;64.44
54455;BME280;40364;52.270;10.546;2022-12-07T00:58:06;100325.25;;;10.92;67.58
54455;BME280;40364;52.270;10.546;2022-12-07T01:00:35;100322.34;;;12.00;62.87
54455;BME280;40364;52.270;10.546;2022-12-07T01:03:02;100325.50;;;11.98;61.46
54455;BME280;40364;52.270;10.546;2022-12-07T01:05:29;100320.56;;;11.92;62.64
54455;BME280;40364;52.270;10.546;2022-12-07T01:07:55;100318.41;;;12.83;57.46
54455;BME280;40364;52.270;10.546;2022-12-07T01:10:22;100318.78;;;11.71;62.05
54455;BME280;40364;52.270;10.546;2022-12-07T01:12:49;100312.75;;;12.79;57.36
54455;BME280;40364;52.270;10.546;2022-12-07T01:15:15;100313.91;;;11.68;61.67
54455;BME280;40364;52.270;10.546;2022-12-07T01:17:43;100313.16;;;11.99;62.25
54455;BME280;40364;52.270;10.546;2022-12-07T01:20:11;100317.50;;;11.81;63.01
54455;BME280;40364;52.270;10.546;2022-12-07T01:22:38;100309.56;;;12.46;61.01
54455;BME280;40364;52.270;10.546;2022-12-07T01:25:06;100308.41;;;11.00;67.54
54455;BME280;40364;52.270;10.546;2022-12-07T01:27:33;100313.34;;;11.47;65.82
54455;BME280;40364;52.270;10.546;2022-12-07T01:30:00;100306.53;;;11.60;65.92
54455;BME280;40364;52.270;10.546;2022-12-07T01:32:27;100297.88;;;11.65;64.75
54455;BME280;40364;52.270;10.546;2022-12-07T01:34:56;100298.78;;;11.26;68.66
54455;BME280;40364;52.270;10.546;2022-12-07T01:37:23;100295.06;;;11.77;63.61
54455;BME280;40364;52.270;10.546;2022-12-07T01:39:50;100297.28;;;11.72;64.51
54455;BME280;40364;52.270;10.546;2022-12-07T01:42:18;100279.88;;;11.47;66.38
54455;BME280;40364;52.270;10.546;2022-12-07T01:47:57;100282.44;;;10.84;71.49
54455;BME280;40364;52.270;10.546;2022-12-07T01:50:26;100286.84;;;11.41;69.09
54455;BME280;40364;52.270;10.546;2022-12-07T01:52:59;100285.31;;;12.50;64.43
54455;BME280;40364;52.270;10.546;2022-12-07T01:55:29;100286.22;;;12.38;63.29
54455;BME280;40364;52.270;10.546;2022-12-07T01:57:57;100281.75;;;11.87;68.18
54455;BME280;40364;52.270;10.546;2022-12-07T02:00:24;100285.09;;;11.64;69.36
54455;BME280;40364;52.270;10.546;2022-12-07T02:02:54;100280.13;;;11.86;69.76
54455;BME280;40364;52.270;10.546;2022-12-07T02:05:22;100274.91;;;12.00;68.95
54455;BME280;40364;52.270;10.546;2022-12-07T02:07:53;100274.25;;;11.75;70.97
54455;BME280;40364;52.270;10.546;2022-12-07T02:10:23;100279.50;;;12.94;63.88
54455;BME280;40364;52.270;10.546;2022-12-07T02:12:52;100266.44;;;12.12;65.74
54455;BME280;40364;52.270;10.546;2022-12-07T02:15:22;100266.22;;;12.52;65.04
54455;BME280;40364;52.270;10.546;2022-12-07T02:17:58;100260.00;;;12.43;64.81
54455;BME280;40364;52.270;10.546;2022-12-07T02:20:30;100269.28;;;13.82;59.38
54455;BME280;40364;52.270;10.546;2022-12-07T02:29:10;100244.69;;;11.42;71.38
54455;BME280;40364;52.270;10.546;2022-12-07T02:31:44;100257.38;;;13.04;61.64
54455;BME280;40364;52.270;10.546;2022-12-07T02:34:19;100259.88;;;11.45;69.49
54455;BME280;40364;52.270;10.546;2022-12-07T02:36:53;100249.47;;;12.36;65.14
54455;BME280;40364;52.270;10.546;2022-12-07T02:39:26;100252.50;;;11.80;69.01
54455;BME280;40364;52.270;10.546;2022-12-07T02:42:00;100250.03;;;12.26;67.07
54455;BME280;40364;52.270;10.546;2022-12-07T02:44:30;100235.78;;;12.31;64.70
54455;BME280;40364;52.270;10.546;2022-12-07T02:47:01;100235.00;;;13.04;62.11
54455;BME280;40364;52.270;10.546;2022-12-07T02:49:29;100227.41;;;12.31;63.39
54455;BME280;40364;52.270;10.546;2022-12-07T02:51:57;100228.88;;;12.99;62.37
54455;BME280;40364;52.270;10.546;2022-12-07T02:54:24;100228.38;;;12.39;62.53
54455;BME280;40364;52.270;10.546;2022-12-07T02:56:55;100220.84;;;12.24;65.19
54455;BME280;40364;52.270;10.546;2022-12-07T02:59:32;100231.03;;;13.05;62.36
54455;BME280;40364;52.270;10.546;2022-12-07T03:02:11;100233.53;;;12.91;63.54
54455;BME280;40364;52.270;10.546;2022-12-07T03:06:22;100230.44;;;12.96;63.22
54455;BME280;40364;52.270;10.546;2022-12-07T03:08:15;100218.22;;;13.24;60.43
54455;BME280;40364;52.270;10.546;2022-12-07T03:10:53;100218.03;;;12.24;67.08
54455;BME280;40364;52.270;10.546;2022-12-07T03:13:25;100229.50;;;13.50;61.02
54455;BME280;40364;52.270;10.546;2022-12-07T03:16:00;100223.41;;;14.39;57.93
54455;BME280;40364;52.270;10.546;2022-12-07T03:18:31;100218.19;;;14.94;55.27
54455;BME280;40364;52.270;10.546;2022-12-07T03:21:02;100219.03;;;14.98;53.93
54455;BME280;40364;52.270;10.546;2022-12-07T03:23:32;100215.47;;;14.71;54.99
54455;BME280;40364;52.270;10.546;2022-12-07T03:26:01;100221.25;;;15.15;53.74
54455;BME280;40364;52.270;10.546;2022-12-07T03:28:32;100230.72;;;14.74;54.74
54455;BME280;40364;52.270;10.546;2022-12-07T03:31:07;100219.56;;;14.47;56.54
54455;BME280;40364;52.270;10.546;2022-12-07T03:33:41;100211.31;;;14.32;57.06
54455;BME280;40364;52.270;10.546;2022-12-07T03:36:14;100208.38;;;13.10;60.73
54455;BME280;40364;52.270;10.546;2022-12-07T03:38:46;100211.00;;;13.88;59.23
54455;BME280;40364;52.270;10.546;2022-12-07T03:41:17;100203.97;;;13.97;58.03
54455;BME280;40364;52.270;10.546;2022-12-07T03:43:47;100205.50;;;13.95;57.66
54455;BME280;40364;52.270;10.546;2022-12-07T03:46:19;100214.25;;;14.16;57.79
54455;BME280;40364;52.270;10.546;2022-12-07T03:48:54;100209.34;;;15.26;53.72
54455;BME280;40364;52.270;10.546;2022-12-07T03:51:25;100200.97;;;14.36;56.45
54455;BME280;40364;52.270;10.546;2022-12-07T03:54:00;100201.03;;;13.90;57.38
54455;BME280;40364;52.270;10.546;2022-12-07T03:56:29;100190.88;;;14.05;57.05
54455;BME280;40364;52.270;10.546;2022-12-07T03:58:56;100202.53;;;13.61;57.66
54455;BME280;40364;52.270;10.546;2022-12-07T04:01:24;100205.28;;;14.30;56.15
54455;BME280;40364;52.270;10.546;2022-12-07T04:03:51;100201.50;;;14.45;54.38
54455;BME280;40364;52.270;10.546;2022-12-07T04:06:18;100196.31;;;14.21;56.00
54455;BME280;40364;52.270;10.546;2022-12-07T04:08:45;100216.91;;;14.58;54.53
54455;BME280;40364;52.270;10.546;2022-12-07T04:11:12;100210.06;;;13.57;56.18
54455;BME280;40364;52.270;10.546;2022-12-07T04:13:38;100204.28;;;13.69;56.69
54455;BME280;40364;52.270;10.546;2022-12-07T04:16:19;100210.41;;;14.51;54.52
54455;BME280;40364;52.270;10.546;2022-12-07T04:18:47;100205.66;;;14.28;56.35
54455;BME280;40364;52.270;10.546;2022-12-07T04:21:14;100203.72;;;14.06;56.57
54455;BME280;40364;52.270;10.546;2022-12-07T04:23:41;100204.84;;;13.78;56.82
54455;BME280;40364;52.270;10.546;2022-12-07T04:26:07;100209.34;;;14.09;56.33
54455;BME280;40364;52.270;10.546;2022-12-07T04:28:34;100207.97;;;14.79;53.37
54455;BME280;40364;52.270;10.546;2022-12-07T04:31:01;100206.34;;;13.72;57.10
54455;BME280;40364;52.270;10.546;2022-12-07T04:33:27;100214.09;;;13.60;57.38
54455;BME280;40364;52.270;10.546;2022-12-07T04:35:56;100203.66;;;14.85;53.73
54455;BME280;40364;52.270;10.546;2022-12-07T04:38:22;100200.19;;;14.12;55.39
54455;BME280;40364;52.270;10.546;2022-12-07T04:40:49;100194.78;;;13.74;56.30
54455;BME280;40364;52.270;10.546;2022-12-07T04:43:16;100199.81;;;12.84;59.49
54455;BME280;40364;52.270;10.546;2022-12-07T04:45:46;100209.94;;;13.50;57.53
54455;BME280;40364;52.270;10.546;2022-12-07T04:48:13;100196.00;;;13.31;57.68
54455;BME280;40364;52.270;10.546;2022-12-07T04:50:39;100201.34;;;13.39;58.24
54455;BME280;40364;52.270;10.546;2022-12-07T04:53:08;100194.59;;;13.63;58.12
54455;BME280;40364;52.270;10.546;2022-12-07T04:55:35;100194.16;;;13.00;59.46
54455;BME280;40364;52.270;10.546;2022-12-07T04:58:02;100192.25;;;12.85;61.30
54455;BME280;40364;52.270;10.546;2022-12-07T05:00:29;100192.22;;;13.65;58.19
54455;BME280;40364;52.270;10.546;2022-12-07T05:02:55;100170.81;;;13.76;56.11
54455;BME280;40364;52.270;10.546;2022-12-07T05:05:22;100195.84;;;14.41;55.01
54455;BME280;40364;52.270;10.546;2022-12-07T05:07:50;100190.97;;;13.86;57.12
54455;BME280;40364;52.270;10.546;2022-12-07T05:10:18;100198.72;;;13.27;59.57
54455;BME280;40364;52.270;10.546;2022-12-07T05:12:45;100203.66;;;12.06;64.45
54455;BME280;40364;52.270;10.546;2022-12-07T05:15:13;100197.22;;;13.75;57.82
54455;BME280;40364;52.270;10.546;2022-12-07T05:17:40;100207.03;;;13.24;58.88
54455;BME280;40364;52.270;10.546;2022-12-07T05:20:08;100207.50;;;13.48;57.88
54455;BME280;40364;52.270;10.546;2022-12-07T05:22:35;100199.88;;;13.68;56.63
54455;BME280;40364;52.270;10.546;2022-12-07T05:25:03;100199.09;;;13.48;57.29
54455;BME280;40364;52.270;10.546;2022-12-07T05:27:31;100204.22;;;14.15;55.48
54455;BME280;40364;52.270;10.546;2022-12-07T05:29:58;100203.06;;;13.05;58.12
54455;BME280;40364;52.270;10.546;2022-12-07T05:32:24;100200.56;;;14.37;54.64
54455;BME280;40364;52.270;10.546;2022-12-07T05:34:51;100212.03;;;13.79;55.60
54455;BME280;40364;52.270;10.546;2022-12-07T05:37:20;100205.72;;;13.60;55.98
54455;BME280;40364;52.270;10.546;2022-12-07T05:39:46;100208.38;;;14.25;54.25
54455;BME280;40364;52.270;10.546;2022-12-07T05:42:13;100195.72;;;14.91;52.05
54455;BME280;40364;52.270;10.546;2022-12-07T05:44:43;100202.94;;;14.09;54.30
54455;BME280;40364;52.270;10.546;2022-12-07T05:47:10;100198.69;;;13.92;54.34
54455;BME280;40364;52.270;10.546;2022-12-07T05:49:38;100189.47;;;13.92;54.29
54455;BME280;40364;52.270;10.546;2022-12-07T05:52:05;100190.88;;;14.05;54.32
54455;BME280;40364;52.270;10.546;2022-12-07T05:54:32;100189.84;;;14.16;53.63
54455;BME280;40364;52.270;10.546;2022-12-07T05:56:59;100200.69;;;14.44;52.39
54455;BME280;40364;52.270;10.546;2022-12-07T05:59:25;100196.13;;;14.33;53.64
54455;BME280;40364;52.270;10.546;2022-12-07T06:01:55;100200.47;;;14.30;53.67
54455;BME280;40364;52.270;10.546;2022-12-07T06:04:23;100193.75;;;14.61;52.52
54455;BME280;40364;52.270;10.546;2022-12-07T06:06:51;100198.06;;;14.85;51.95
54455;BME280;40364;52.270;10.546;2022-12-07T06:09:18;100195.06;;;14.18;53.81
54455;BME280;40364;52.270;10.546;2022-12-07T06:11:45;100187.78;;;13.87;54.42
54455;BME280;40364;52.270;10.546;2022-12-07T06:14:29;100194.56;;;14.35;53.94
54455;BME280;40364;52.270;10.546;2022-12-07T06:16:58;100191.59;;;14.81;52.47
54455;BME280;40364;52.270;10.546;2022-12-07T06:19:25;100194.69;;;13.93;54.79
54455;BME280;40364;52.270;10.546;2022-12-07T06:21:53;100190.09;;;13.81;54.94
54455;BME280;40364;52.270;10.546;2022-12-07T06:24:20;100201.06;;;13.25;57.86
54455;BME280;40364;52.270;10.546;2022-12-07T06:26:47;100202.03;;;13.78;54.87
54455;BME280;40364;52.270;10.546;2022-12-07T06:29:15;100219.69;;;13.82;54.64
54455;BME280;40364;52.270;10.546;2022-12-07T06:31:46;100195.66;;;12.20;59.45
54455;BME280;40364;52.270;10.546;2022-12-07T06:34:22;100205.81;;;12.82;59.13
54455;BME280;40364;52.270;10.546;2022-12-07T06:36:50;100212.91;;;13.83;54.85
54455;BME280;40364;52.270;10.546;2022-12-07T06:39:19;100227.72;;;13.00;58.02
54455;BME280;40364;52.270;10.546;2022-12-07T06:41:46;100222.50;;;12.98;58.31
54455;BME280;40364;52.270;10.546;2022-12-07T06:44:13;100228.66;;;12.88;58.53
54455;BME280;40364;52.270;10.546;2022-12-07T06:46:40;100217.78;;;13.22;57.06
54455;BME280;40364;52.270;10.546;2022-12-07T06:49:07;100208.31;;;13.49;57.50
54455;BME280;40364;52.270;10.546;2022-12-07T06:51:35;100212.56;;;13.39;60.04
54455;BME280;40364;52.270;10.546;2022-12-07T06:54:08;100216.91;;;12.79;58.30
54455;BME280;40364;52.270;10.546;2022-12-07T06:56:35;100203.81;;;13.22;58.68
54455;BME280;40364;52.270;10.546;2022-12-07T06:59:02;100213.63;;;14.26;55.97
54455;BME280;40364;52.270;10.546;2022-12-07T07:01:30;100210.69;;;13.70;56.71
54455;BME280;40364;52.270;10.546;2022-12-07T07:03:57;100212.91;;;13.38;58.86
54455;BME280;40364;52.270;10.546;2022-12-07T07:06:24;100213.06;;;13.26;58.72
54455;BME280;40364;52.270;10.546;2022-12-07T07:08:52;100201.16;;;13.97;58.28
54455;BME280;40364;52.270;10.546;2022-12-07T07:11:19;100209.72;;;14.08;56.65
54455;BME280;40364;52.270;10.546;2022-12-07T07:13:46;100207.97;;;14.49;54.02
54455;BME280;40364;52.270;10.546;2022-12-07T07:16:13;100210.75;;;14.23;56.39
54455;BME280;40364;52.270;10.546;2022-12-07T07:18:40;100211.16;;;13.30;59.96
54455;BME280;40364;52.270;10.546;2022-12-07T07:21:07;100220.97;;;13.62;57.67
54455;BME280;40364;52.270;10.546;2022-12-07T07:23:35;100216.91;;;14.32;56.66
54455;BME280;40364;52.270;10.546;2022-12-07T07:26:04;100222.31;;;14.74;55.04
54455;BME280;40364;52.270;10.546;2022-12-07T07:28:31;100223.13;;;14.44;54.25
54455;BME280;40364;52.270;10.546;2022-12-07T07:30:57;100215.78;;;14.63;54.52
54455;BME280;40364;52.270;10.546;2022-12-07T07:33:24;100224.38;;;14.24;55.99
54455;BME280;40364;52.270;10.546;2022-12-07T07:35:51;100228.69;;;13.27;57.34
54455;BME280;40364;52.270;10.546;2022-12-07T07:38:18;100225.88;;;14.18;56.61
54455;BME280;40364;52.270;10.546;2022-12-07T07:40:44;100215.47;;;13.92;56.20
54455;BME280;40364;52.270;10.546;2022-12-07T07:43:13;100226.13;;;14.06;56.73
54455;BME280;40364;52.270;10.546;2022-12-07T07:45:39;100226.13;;;14.32;54.62
54455;BME280;40364;52.270;10.546;2022-12-07T07:48:06;100237.81;;;13.89;55.54
54455;BME280;40364;52.270;10.546;2022-12-07T07:50:33;100234.88;;;13.81;57.75
54455;BME280;40364;52.270;10.546;2022-12-07T07:53:00;100234.19;;;13.88;56.84
54455;BME280;40364;52.270;10.546;2022-12-07T07:55:27;100236.09;;;14.07;56.21
54455;BME280;40364;52.270;10.546;2022-12-07T07:57:54;100235.25;;;14.52;54.16
54455;BME280;40364;52.270;10.546;2022-12-07T08:00:23;100231.00;;;15.29;52.86
54455;BME280;40364;52.270;10.546;2022-12-07T08:02:49;100237.34;;;14.89;53.93
54455;BME280;40364;52.270;10.546;2022-12-07T08:05:16;100235.19;;;13.99;56.90
54455;BME280;40364;52.270;10.546;2022-12-07T08:07:43;100251.34;;;12.83;60.44
54455;BME280;40364;52.270;10.546;2022-12-07T08:10:12;100241.84;;;13.07;61.32
54455;BME280;40364;52.270;10.546;2022-12-07T08:12:41;100244.16;;;13.86;58.68
54455;BME280;40364;52.270;10.546;2022-12-07T08:15:25;100247.69;;;13.82;56.81
54455;BME280;40364;52.270;10.546;2022-12-07T08:17:52;100248.41;;;14.25;55.11
54455;BME280;40364;52.270;10.546;2022-12-07T08:20:19;100252.59;;;13.05;59.29
54455;BME280;40364;52.270;10.546;2022-12-07T08:22:46;100241.28;;;13.82;56.87
54455;BME280;40364;52.270;10.546;2022-12-07T08:25:12;100239.91;;;14.18;55.45
54455;BME280;40364;52.270;10.546;2022-12-07T08:27:39;100232.44;;;13.34;58.26
54455;BME280;40364;52.270;10.546;2022-12-07T08:30:07;100231.31;;;14.57;55.58
54455;BME280;40364;52.270;10.546;2022-12-07T08:32:37;100242.38;;;13.32;60.37
54455;BME280;40364;52.270;10.546;2022-12-07T08:35:08;100229.63;;;14.26;56.58
54455;BME280;40364;52.270;10.546;2022-12-07T08:37:35;100232.78;;;13.98;56.74
54455;BME280;40364;52.270;10.546;2022-12-07T08:40:02;100236.44;;;14.51;55.08
54455;BME280;40364;52.270;10.546;2022-12-07T08:42:28;100238.94;;;13.61;56.42
54455;BME280;40364;52.270;10.546;2022-12-07T08:45:03;100243.00;;;14.36;55.45
54455;BME280;40364;52.270;10.546;2022-12-07T08:47:30;100234.50;;;13.60;57.21
54455;BME280;40364;52.270;10.546;2022-12-07T08:49:58;100254.16;;;13.41;57.23
54455;BME280;40364;52.270;10.546;2022-12-07T08:52:29;100242.94;;;14.32;54.82
54455;BME280;40364;52.270;10.546;2022-12-07T08:54:56;100238.69;;;14.42;53.81
54455;BME280;40364;52.270;10.546;2022-12-07T08:57:23;100236.81;;;13.55;57.38
54455;BME280;40364;52.270;10.546;2022-12-07T08:59:50;100248.09;;;14.04;54.65
54455;BME280;40364;52.270;10.546;2022-12-07T09:02:17;100243.13;;;13.52;55.57
54455;BME280;40364;52.270;10.546;2022-12-07T09:04:44;100248.00;;;13.55;56.04
54455;BME280;40364;52.270;10.546;2022-12-07T09:07:12;100259.38;;;15.20;52.65
54455;BME280;40364;52.270;10.546;2022-12-07T09:09:39;100229.97;;;13.98;55.10
54455;BME280;40364;52.270;10.546;2022-12-07T09:12:05;100253.03;;;14.14;55.34
54455;BME280;40364;52.270;10.546;2022-12-07T09:14:32;100255.63;;;14.49;54.13
54455;BME280;40364;52.270;10.546;2022-12-07T09:17:05;100240.34;;;14.46;54.80
54455;BME280;40364;52.270;10.546;2022-12-07T09:19:32;100266.41;;;13.56;56.67
54455;BME280;40364;52.270;10.546;2022-12-07T09:21:59;100251.19;;;13.99;55.25
54455;BME280;40364;52.270;10.546;2022-12-07T09:24:27;100260.69;;;15.30;52.74
54455;BME280;40364;52.270;10.546;2022-12-07T09:26:54;100252.75;;;13.96;54.86
54455;BME280;40364;52.270;10.546;2022-12-07T09:29:20;100251.31;;;13.83;54.24
54455;BME280;40364;52.270;10.546;2022-12-07T09:31:47;100242.31;;;13.70;57.26
54455;BME280;40364;52.270;10.546;2022-12-07T09:34:14;100239.63;;;14.00;55.11
54455;BME280;40364;52.270;10.546;2022-12-07T09:36:41;100247.66;;;13.37;58.17
54455;BME280;40364;52.270;10.546;2022-12-07T09:39:08;100237.63;;;14.01;56.18
54455;BME280;40364;52.270;10.546;2022-12-07T09:41:40;100240.19;;;14.36;54.51
54455;BME280;40364;52.270;10.546;2022-12-07T09:44:11;100247.00;;;14.12;55.13
54455;BME280;40364;52.270;10.546;2022-12-07T09:46:40;100246.50;;;14.56;54.34
54455;BME280;40364;52.270;10.546;2022-12-07T09:49:11;100225.56;;;13.97;56.01
54455;BME280;40364;52.270;10.546;2022-12-07T09:51:39;100236.22;;;14.14;55.72
54455;BME280;40364;52.270;10.546;2022-12-07T09:54:07;100241.88;;;14.67;53.51
54455;BME280;40364;52.270;10.546;2022-12-07T09:56:35;100241.81;;;14.14;54.19
54455;BME280;40364;52.270;10.546;2022-12-07T09:59:03;100236.53;;;14.09;55.30
54455;BME280;40364;52.270;10.546;2022-12-07T10:01:31;100226.66;;;14.41;54.33
54455;BME280;40364;52.270;10.546;2022-12-07T10:04:06;100240.22;;;14.13;54.11
54455;BME280;40364;52.270;10.546;2022-12-07T10:06:35;100250.69;;;13.70;55.27
54455;BME280;40364;52.270;10.546;2022-12-07T10:09:11;100247.13;;;13.51;54.91
54455;BME280;40364;52.270;10.546;2022-12-07T10:12:00;100239.94;;;14.44;53.65
54455;BME280;40364;52.270;10.546;2022-12-07T10:14:30;100235.19;;;13.99;54.71
54455;BME280;40364;52.270;10.546;2022-12-07T10:16:58;100238.16;;;13.03;54.70
54455;BME280;40364;52.270;10.546;2022-12-07T10:19:26;100240.03;;;14.52;53.38
54455;BME280;40364;52.270;10.546;2022-12-07T10:22:02;100234.59;;;14.13;53.57
54455;BME280;40364;52.270;10.546;2022-12-07T10:24:30;100233.81;;;12.32;56.18
54455;BME280;40364;52.270;10.546;2022-12-07T10:26:57;100239.28;;;13.37;59.79
54455;BME280;40364;52.270;10.546;2022-12-07T10:29:30;100237.44;;;13.44;58.35
54455;BME280;40364;52.270;10.546;2022-12-07T10:31:59;100225.63;;;14.00;55.94
54455;BME280;40364;52.270;10.546;2022-12-07T10:34:28;100236.06;;;14.53;52.07
54455;BME280;40364;52.270;10.546;2022-12-07T10:37:14;100231.06;;;14.16;53.29
54455;BME280;40364;52.270;10.546;2022-12-07T10:39:45;100226.16;;;15.22;51.51
54455;BME280;40364;52.270;10.546;2022-12-07T10:42:17;100230.44;;;13.35;54.46
54455;BME280;40364;52.270;10.546;2022-12-07T10:44:46;100233.66;;;14.28;53.39
54455;BME280;40364;52.270;10.546;2022-12-07T10:47:20;100228.25;;;13.25;55.48
54455;BME280;40364;52.270;10.546;2022-12-07T10:50:19;100227.00;;;14.40;53.04
54455;BME280;40364;52.270;10.546;2022-12-07T10:58:56;100224.25;;;14.70;51.01
54455;BME280;40364;52.270;10.546;2022-12-07T11:01:32;100222.47;;;14.55;51.27
54455;BME280;40364;52.270;10.546;2022-12-07T11:04:11;100214.75;;;14.48;51.72
54455;BME280;40364;52.270;10.546;2022-12-07T11:06:51;100220.91;;;14.08;52.92
54455;BME280;40364;52.270;10.546;2022-12-07T11:09:34;100215.03;;;15.33;50.12
54455;BME280;40364;52.270;10.546;2022-12-07T11:12:09;100216.41;;;14.26;51.69
54455;BME280;40364;52.270;10.546;2022-12-07T11:14:45;100218.94;;;14.08;50.91
54455;BME280;40364;52.270;10.546;2022-12-07T11:17:25;100210.59;;;15.32;49.49
54455;BME280;40364;52.270;10.546;2022-12-07T11:20:02;100209.75;;;15.24;49.23
54455;BME280;40364;52.270;10.546;2022-12-07T11:22:38;100212.53;;;14.34;51.18
54455;BME280;40364;52.270;10.546;2022-12-07T11:25:17;100209.22;;;15.52;48.56
54455;BME280;40364;52.270;10.546;2022-12-07T11:27:52;100210.88;;;12.77;53.53
54455;BME280;40364;52.270;10.546;2022-12-07T11:30:29;100202.56;;;14.93;49.92
54455;BME280;40364;52.270;10.546;2022-12-07T11:33:12;100207.00;;;16.16;47.43
54455;BME280;40364;52.270;10.546;2022-12-07T11:35:54;100213.81;;;15.67;47.71
54455;BME280;40364;52.270;10.546;2022-12-07T11:38:35;100202.91;;;13.82;51.08
54455;BME280;40364;52.270;10.546;2022-12-07T11:41:05;100196.91;;;14.60;50.53
54455;BME280;40364;52.270;10.546;2022-12-07T11:43:49;100203.19;;;14.49;50.95
54455;BME280;40364;52.270;10.546;2022-12-07T11:46:17;100196.38;;;15.51;48.52
54455;BME280;40364;52.270;10.546;2022-12-07T11:48:48;100210.06;;;13.57;51.11
54455;BME280;40364;52.270;10.546;2022-12-07T11:51:18;100196.16;;;15.30;49.26
54455;BME280;40364;52.270;10.546;2022-12-07T11:53:50;100187.16;;;15.95;48.13
54455;BME280;40364;52.270;10.546;2022-12-07T11:56:20;100185.31;;;14.91;49.16
54455;BME280;40364;52.270;10.546;2022-12-07T11:58:51;100184.59;;;15.01;49.50
54455;BME280;40364;52.270;10.546;2022-12-07T12:01:26;100176.19;;;15.01;49.20
54455;BME280;40364;52.270;10.546;2022-12-07T12:04:02;100172.28;;;15.87;47.45
54455;BME280;40364;52.270;10.546;2022-12-07T12:06:31;100168.41;;;13.75;51.23
54455;BME280;40364;52.270;10.546;2022-12-07T12:09:05;100163.88;;;14.20;50.43
54455;BME280;40364;52.270;10.546;2022-12-07T12:11:47;100171.72;;;14.33;51.28
54455;BME280;40364;52.270;10.546;2022-12-07T12:14:45;100176.09;;;14.08;51.71
54455;BME280;40364;52.270;10.546;2022-12-07T12:17:41;100165.88;;;14.45;51.14
54455;BME280;40364;52.270;10.546;2022-12-07T12:20:20;100165.88;;;14.45;50.79
54455;BME280;40364;52.270;10.546;2022-12-07T12:22:53;100161.66;;;14.59;50.49
54455;BME280;40364;52.270;10.546;2022-12-07T12:25:23;100163.50;;;14.47;50.48
54455;BME280;40364;52.270;10.546;2022-12-07T12:27:52;100168.63;;;15.05;49.25
54455;BME280;40364;52.270;10.546;2022-12-07T12:30:29;100165.41;;;15.03;48.66
54455;BME280;40364;52.270;10.546;2022-12-07T12:33:03;100164.91;;;13.59;51.26
54455;BME280;40364;52.270;10.546;2022-12-07T12:35:33;100158.03;;;14.28;50.00
54455;BME280;40364;52.270;10.546;2022-12-07T12:41:06;100161.94;;;14.24;49.53
54455;BME280;40364;52.270;10.546;2022-12-07T12:43:53;100152.28;;;13.45;50.22
54455;BME280;40364;52.270;10.546;2022-12-07T12:46:45;100158.94;;;14.99;48.45
54455;BME280;40364;52.270;10.546;2022-12-07T12:49:40;100147.03;;;15.09;47.51
54455;BME280;40364;52.270;10.546;2022-12-07T12:52:47;100144.53;;;14.37;49.81
54455;BME280;40364;52.270;10.546;2022-12-07T12:55:25;100140.16;;;14.70;48.47
54455;BME280;40364;52.270;10.546;2022-12-07T12:58:31;100152.34;;;15.18;47.93
54455;BME280;40364;52.270;10.546;2022-12-07T13:07:13;100142.72;;;16.07;45.53
54455;BME280;40364;52.270;10.546;2022-12-07T13:10:01;100136.56;;;15.43;46.42
54455;BME280;40364;52.270;10.546;2022-12-07T13:12:28;100143.34;;;15.39;46.46
54455;BME280;40364;52.270;10.546;2022-12-07T13:14:57;100133.78;;;15.47;46.28
54455;BME280;40364;52.270;10.546;2022-12-07T13:18:02;100138.22;;;15.48;46.70
54455;BME280;40364;52.270;10.546;2022-12-07T13:20:49;100136.97;;;15.05;47.19
54455;BME280;40364;52.270;10.546;2022-12-07T13:23:30;100136.94;;;14.68;48.01